Great Talent — VRFS7 — position and weather

sailwx.info

Track history (hours):
 
Tides and Currents Weather Stations Pressure Air Temp Water Temp Dewpoint Dewpoint Depression Visibility Wind Speed Wind Dir Waves Ship Positions

Great Talent

Last reported at 2017-Oct-19 11:22 UTC. Time now 2017-Oct-20 01:13 UTC.
Position N 24°27' E 117°58'.

Length 225 m; draft 12.5 m.

Type: Cargo ship. MMSI: 477627400.

Date/timePositionNaut miles runAvg speedWind from/ knotsBaromVisibWave heightAir tempDewpointWater temp
2017-Oct-19 11:22N 24°27' E 117°58'0 0.0
2017-Oct-19 04:56N 24°27' E 117°58'1 1.0
2017-Oct-19 04:25N 24°27' E 117°58'2 4.8
2017-Oct-19 04:00N 24°27' E 118°00'4 8.3
2017-Oct-19 03:30N 24°25' E 118°04'4 8.3
2017-Oct-19 03:00N 24°22' E 118°08'3 6.7
2017-Oct-19 02:30N 24°21' E 118°11'1 2.3
2017-Oct-19 02:00N 24°20' E 118°12'0 0.1
2017-Oct-19 01:30N 24°20' E 118°12'0 0.0
2017-Oct-19 01:00N 24°20' E 118°12'0 0.1
2017-Oct-19 00:30N 24°20' E 118°12'0 0.0
2017-Oct-19 00:00N 24°20' E 118°12'0 0.1
2017-Oct-18 23:27N 24°20' E 118°12'0 0.1
2017-Oct-18 23:00N 24°20' E 118°12'0 0.3
2017-Oct-18 22:30N 24°20' E 118°12'0 0.1
2017-Oct-18 22:00N 24°20' E 118°12'0 0.0
2017-Oct-18 21:30N 24°20' E 118°12'0 0.0
2017-Oct-18 21:00N 24°20' E 118°12'0 0.0
2017-Oct-18 20:30N 24°20' E 118°12'0 0.1
2017-Oct-18 19:54N 24°20' E 118°12'0 0.1
2017-Oct-18 19:30N 24°20' E 118°12'0 0.0
2017-Oct-18 19:00N 24°20' E 118°12'0 0.1
2017-Oct-18 18:30N 24°20' E 118°12'0 0.0
2017-Oct-18 18:00N 24°20' E 118°12'0 0.1
2017-Oct-18 17:30N 24°20' E 118°12'0 0.0
2017-Oct-18 17:00N 24°20' E 118°12'0 0.0
2017-Oct-18 16:27N 24°20' E 118°12'0 0.2
2017-Oct-18 15:57N 24°20' E 118°12'0 0.1
2017-Oct-18 15:30N 24°20' E 118°12'0 0.1
2017-Oct-18 15:00N 24°20' E 118°12'0 0.1
2017-Oct-18 14:00N 24°20' E 118°12'0 0.1
2017-Oct-18 13:30N 24°20' E 118°12'0 0.0
2017-Oct-18 13:00N 24°20' E 118°12'0 0.0
2017-Oct-18 12:30N 24°20' E 118°12'0 0.1
2017-Oct-18 12:00N 24°20' E 118°12'0 0.0
2017-Oct-18 11:30N 24°20' E 118°12'0 0.1
2017-Oct-18 11:00N 24°20' E 118°12'0 0.2
2017-Oct-18 10:30N 24°20' E 118°12'0 0.3
2017-Oct-18 10:00N 24°20' E 118°12'0 0.2
2017-Oct-18 09:30N 24°20' E 118°12'0 0.0
2017-Oct-18 08:59N 24°20' E 118°12'0 0.0
2017-Oct-18 08:29N 24°20' E 118°12'0 0.0
2017-Oct-18 07:56N 24°20' E 118°12'0 0.0
2017-Oct-18 07:29N 24°20' E 118°12'0 0.0
2017-Oct-18 06:59N 24°20' E 118°12'0 0.0
2017-Oct-18 06:29N 24°20' E 118°12'0 0.1
2017-Oct-18 05:59N 24°20' E 118°12'0 0.0
2017-Oct-18 05:29N 24°20' E 118°12'0 0.0
2017-Oct-18 04:59N 24°20' E 118°12'0 0.0
2017-Oct-18 04:29N 24°20' E 118°12'0 0.1
2017-Oct-18 03:59N 24°20' E 118°12'0 0.1
2017-Oct-18 03:29N 24°20' E 118°12'0 0.2
2017-Oct-18 02:59N 24°20' E 118°12'0 0.1
2017-Oct-18 02:26N 24°20' E 118°12'0 0.1
2017-Oct-18 01:59N 24°20' E 118°12'0 0.1
2017-Oct-18 01:29N 24°20' E 118°12'0 0.0
2017-Oct-18 00:59N 24°20' E 118°12'0 0.0
2017-Oct-18 00:29N 24°20' E 118°12'0 0.6
2017-Oct-18 00:00N 24°20' E 118°12'1 2.1
2017-Oct-17 23:30N 24°19' E 118°12'510.3
2017-Oct-17 23:00N 24°15' E 118°16'611.1
2017-Oct-17 22:30N 24°11' E 118°20'611.1
2017-Oct-17 22:00N 24°11' E 118°26'611.1
2017-Oct-17 21:30N 24°12' E 118°32'510.6
2017-Oct-17 21:00N 24°13' E 118°38'611.3
2017-Oct-17 20:30N 24°12' E 118°44'  
Track history (hours):
 
Tides and Currents Weather Stations Pressure Air Temp Water Temp Dewpoint Dewpoint Depression Visibility Wind Speed Wind Dir Waves Ship Positions

Great Talent

Last reported at 2017-Oct-19 11:22 UTC. Time now 2017-Oct-20 01:13 UTC.
Position N 24°27' E 117°58'.

Length 225 m; draft 12.5 m.

Type: Cargo ship. MMSI: 477627400.

Date/timePositionNaut miles runAvg speedWind from/ knotsBaromVisibWave heightAir tempDewpointWater temp
2017-Oct-19 11:22N 24°27' E 117°58'0 0.0
2017-Oct-19 04:56N 24°27' E 117°58'1 1.0
2017-Oct-19 04:25N 24°27' E 117°58'2 4.8
2017-Oct-19 04:00N 24°27' E 118°00'4 8.3
2017-Oct-19 03:30N 24°25' E 118°04'4 8.3
2017-Oct-19 03:00N 24°22' E 118°08'3 6.7
2017-Oct-19 02:30N 24°21' E 118°11'1 2.3
2017-Oct-19 02:00N 24°20' E 118°12'0 0.1
2017-Oct-19 01:30N 24°20' E 118°12'0 0.0
2017-Oct-19 01:00N 24°20' E 118°12'0 0.1
2017-Oct-19 00:30N 24°20' E 118°12'0 0.0
2017-Oct-19 00:00N 24°20' E 118°12'0 0.1
2017-Oct-18 23:27N 24°20' E 118°12'0 0.1
2017-Oct-18 23:00N 24°20' E 118°12'0 0.3
2017-Oct-18 22:30N 24°20' E 118°12'0 0.1
2017-Oct-18 22:00N 24°20' E 118°12'0 0.0
2017-Oct-18 21:30N 24°20' E 118°12'0 0.0
2017-Oct-18 21:00N 24°20' E 118°12'0 0.0
2017-Oct-18 20:30N 24°20' E 118°12'0 0.1
2017-Oct-18 19:54N 24°20' E 118°12'0 0.1
2017-Oct-18 19:30N 24°20' E 118°12'0 0.0
2017-Oct-18 19:00N 24°20' E 118°12'0 0.1
2017-Oct-18 18:30N 24°20' E 118°12'0 0.0
2017-Oct-18 18:00N 24°20' E 118°12'0 0.1
2017-Oct-18 17:30N 24°20' E 118°12'0 0.0
2017-Oct-18 17:00N 24°20' E 118°12'0 0.0
2017-Oct-18 16:27N 24°20' E 118°12'0 0.2
2017-Oct-18 15:57N 24°20' E 118°12'0 0.1
2017-Oct-18 15:30N 24°20' E 118°12'0 0.1
2017-Oct-18 15:00N 24°20' E 118°12'0 0.1
2017-Oct-18 14:00N 24°20' E 118°12'0 0.1
2017-Oct-18 13:30N 24°20' E 118°12'0 0.0
2017-Oct-18 13:00N 24°20' E 118°12'0 0.0
2017-Oct-18 12:30N 24°20' E 118°12'0 0.1
2017-Oct-18 12:00N 24°20' E 118°12'0 0.0
2017-Oct-18 11:30N 24°20' E 118°12'0 0.1
2017-Oct-18 11:00N 24°20' E 118°12'0 0.2
2017-Oct-18 10:30N 24°20' E 118°12'0 0.3
2017-Oct-18 10:00N 24°20' E 118°12'0 0.2
2017-Oct-18 09:30N 24°20' E 118°12'0 0.0
2017-Oct-18 08:59N 24°20' E 118°12'0 0.0
2017-Oct-18 08:29N 24°20' E 118°12'0 0.0
2017-Oct-18 07:56N 24°20' E 118°12'0 0.0
2017-Oct-18 07:29N 24°20' E 118°12'0 0.0
2017-Oct-18 06:59N 24°20' E 118°12'0 0.0
2017-Oct-18 06:29N 24°20' E 118°12'0 0.1
2017-Oct-18 05:59N 24°20' E 118°12'0 0.0
2017-Oct-18 05:29N 24°20' E 118°12'0 0.0
2017-Oct-18 04:59N 24°20' E 118°12'0 0.0
2017-Oct-18 04:29N 24°20' E 118°12'0 0.1
2017-Oct-18 03:59N 24°20' E 118°12'0 0.1
2017-Oct-18 03:29N 24°20' E 118°12'0 0.2
2017-Oct-18 02:59N 24°20' E 118°12'0 0.1
2017-Oct-18 02:26N 24°20' E 118°12'0 0.1
2017-Oct-18 01:59N 24°20' E 118°12'0 0.1
2017-Oct-18 01:29N 24°20' E 118°12'0 0.0
2017-Oct-18 00:59N 24°20' E 118°12'0 0.0
2017-Oct-18 00:29N 24°20' E 118°12'0 0.6
2017-Oct-18 00:00N 24°20' E 118°12'1 2.1
2017-Oct-17 23:30N 24°19' E 118°12'510.3
2017-Oct-17 23:00N 24°15' E 118°16'611.1
2017-Oct-17 22:30N 24°11' E 118°20'611.1
2017-Oct-17 22:00N 24°11' E 118°26'611.1
2017-Oct-17 21:30N 24°12' E 118°32'510.6
2017-Oct-17 21:00N 24°13' E 118°38'611.3
2017-Oct-17 20:30N 24°12' E 118°44'  

Dump ship's entire track history